Time;durP1;ratioP1;P1;durP2;ratioP2;P2;SDS_P1;SDS_P2;PMS_P1;PMS_P2;Temp;Humidity;BMP_temperature;BMP_pressure;BME280_temperature;BME280_humidity;BME280_pressure;Samples;Min_cycle;Max_cycle;Signal;HPM_P1;HPM_P2
2021/05/05 00:01:59;;;;;;;5.07;3.42;;;;;;;14.22;52.11;98636.47;5044901;28;20060;-69
2021/05/05 00:04:27;;;;;;;5.70;3.75;;;;;;;14.14;52.24;98634.69;5045086;28;20049;-69
2021/05/05 00:06:56;;;;;;;6.25;3.70;;;;;;;14.08;52.54;98646.03;5046202;28;20048;-69
2021/05/05 00:09:23;;;;;;;4.88;3.63;;;;;;;14.00;52.80;98646.06;5045883;28;20041;-72
2021/05/05 00:11:50;;;;;;;6.75;4.25;;;;;;;13.95;53.02;98635.13;5045113;28;20045;-73
2021/05/05 00:14:18;;;;;;;5.63;4.18;;;;;;;13.87;53.31;98633.34;5047055;28;20045;-71
2021/05/05 00:16:46;;;;;;;7.28;3.40;;;;;;;13.84;53.35;98635.50;5044835;28;20061;-69
2021/05/05 00:19:14;;;;;;;5.53;4.07;;;;;;;13.80;53.34;98635.03;5044597;28;20076;-70
2021/05/05 00:21:41;;;;;;;5.38;4.30;;;;;;;13.76;53.44;98636.38;5044316;28;20077;-72
2021/05/05 00:24:09;;;;;;;7.20;4.50;;;;;;;13.71;53.79;98636.06;5045135;28;20098;-70
2021/05/05 00:26:36;;;;;;;6.63;3.75;;;;;;;13.69;53.82;98640.72;5045512;28;20105;-70
2021/05/05 00:29:03;;;;;;;7.95;4.30;;;;;;;13.63;54.05;98630.75;5045901;28;20045;-71
2021/05/05 00:31:30;;;;;;;7.10;4.15;;;;;;;13.57;54.18;98626.97;5045635;28;20081;-70
2021/05/05 00:33:58;;;;;;;6.75;4.47;;;;;;;13.52;54.38;98630.16;5046015;28;20056;-71
2021/05/05 00:36:24;;;;;;;9.13;4.88;;;;;;;13.50;54.52;98637.44;5045981;28;20052;-68
2021/05/05 00:38:51;;;;;;;7.22;6.07;;;;;;;13.47;54.59;98640.44;5045822;28;20064;-70
2021/05/05 00:41:18;;;;;;;8.00;4.40;;;;;;;13.43;54.90;98638.28;5045966;28;20056;-69
2021/05/05 00:43:45;;;;;;;7.18;4.15;;;;;;;13.39;54.95;98640.44;5044643;28;20055;-71
2021/05/05 00:46:11;;;;;;;7.05;3.90;;;;;;;13.39;55.05;98632.47;5045569;28;20215;-69
2021/05/05 00:48:38;;;;;;;8.30;4.88;;;;;;;13.35;55.11;98631.19;5044234;28;20144;-70
2021/05/05 00:51:07;;;;;;;6.57;3.97;;;;;;;13.30;55.23;98628.16;5027867;28;20052;-73
2021/05/05 00:53:34;;;;;;;5.70;3.47;;;;;;;13.22;55.59;98629.03;5045085;28;20051;-74
2021/05/05 00:56:01;;;;;;;7.78;5.03;;;;;;;13.16;55.56;98630.53;5046306;28;20116;-70
2021/05/05 00:58:29;;;;;;;6.97;4.07;;;;;;;13.12;55.66;98628.34;5044928;28;20147;-71
2021/05/05 01:00:56;;;;;;;6.75;4.32;;;;;;;13.06;55.91;98624.56;5045456;28;20049;-71
2021/05/05 01:03:23;;;;;;;7.20;4.57;;;;;;;13.01;55.95;98633.00;5046029;28;20428;-70
2021/05/05 01:05:50;;;;;;;6.97;4.15;;;;;;;12.96;55.95;98630.03;5046788;28;20053;-72
2021/05/05 01:08:21;;;;;;;8.73;4.43;;;;;;;12.95;56.13;98624.91;5046168;28;20398;-69
2021/05/05 01:10:49;;;;;;;7.80;4.95;;;;;;;12.88;56.36;98621.25;5045231;28;20055;-70
2021/05/05 01:13:15;;;;;;;8.25;5.40;;;;;;;12.82;56.24;98622.75;5043859;28;20432;-70
2021/05/05 01:15:43;;;;;;;7.30;5.22;;;;;;;12.78;56.38;98624.06;5045925;28;20049;-71
2021/05/05 01:18:10;;;;;;;6.22;4.50;;;;;;;12.74;56.52;98622.75;5043948;28;20049;-70
2021/05/05 01:20:37;;;;;;;7.30;4.88;;;;;;;12.71;56.43;98613.31;5044552;28;20103;-69
2021/05/05 01:23:05;;;;;;;6.05;4.38;;;;;;;12.69;56.43;98617.94;5045014;28;20049;-69
2021/05/05 01:25:32;;;;;;;5.60;4.22;;;;;;;12.66;56.68;98623.56;5045396;28;20056;-68
2021/05/05 01:27:59;;;;;;;5.45;4.47;;;;;;;12.64;56.54;98617.63;5044198;28;20059;-69
2021/05/05 01:30:26;;;;;;;8.63;4.60;;;;;;;12.60;56.69;98614.47;5045248;28;20048;-69
2021/05/05 01:32:53;;;;;;;10.45;6.47;;;;;;;12.56;56.77;98618.41;5044851;28;20049;-68
2021/05/05 01:35:21;;;;;;;7.63;4.93;;;;;;;12.55;56.84;98615.94;5044691;28;20041;-71
2021/05/05 01:37:49;;;;;;;6.40;4.65;;;;;;;12.53;56.70;98617.91;5045852;28;20049;-69
2021/05/05 01:40:24;;;;;;;8.32;4.93;;;;;;;12.50;56.66;98607.69;5044896;28;20404;-71
2021/05/05 01:42:51;;;;;;;6.97;5.03;;;;;;;12.48;56.92;98613.13;5043986;28;20124;-70
2021/05/05 01:45:18;;;;;;;8.52;5.00;;;;;;;12.42;56.88;98606.69;5045931;28;20048;-71
2021/05/05 01:47:44;;;;;;;6.05;4.35;;;;;;;12.38;56.91;98605.31;5043257;28;20064;-69
2021/05/05 01:50:12;;;;;;;8.18;4.88;;;;;;;12.36;57.00;98603.84;5043222;28;20669;-71
2021/05/05 01:52:40;;;;;;;7.80;4.70;;;;;;;12.37;56.86;98600.19;5045304;28;20049;-71
2021/05/05 01:55:09;;;;;;;5.90;3.88;;;;;;;12.34;56.89;98598.72;5043119;28;20067;-70
2021/05/05 01:57:39;;;;;;;7.47;4.95;;;;;;;12.32;56.90;98606.00;5044917;28;20052;-69
2021/05/05 02:00:12;;;;;;;8.68;5.43;;;;;;;12.29;56.95;98605.47;5046274;28;20075;-68
2021/05/05 02:02:39;;;;;;;4.97;4.25;;;;;;;12.26;56.90;98606.63;5044449;28;20041;-73
2021/05/05 02:05:07;;;;;;;6.93;5.63;;;;;;;12.22;56.99;98610.59;5045576;28;20052;-69
2021/05/05 02:07:34;;;;;;;7.00;4.75;;;;;;;12.20;56.87;98599.34;5046301;28;20049;-70
2021/05/05 02:10:01;;;;;;;14.65;5.28;;;;;;;12.17;56.99;98610.25;5044595;28;20053;-70
2021/05/05 02:12:31;;;;;;;7.05;4.22;;;;;;;12.15;57.02;98599.00;5045379;28;20037;-71
2021/05/05 02:14:59;;;;;;;6.25;4.13;;;;;;;12.15;56.93;98606.94;5045808;28;20068;-71
2021/05/05 02:17:25;;;;;;;5.75;4.03;;;;;;;12.13;57.11;98606.28;5043113;28;20071;-70
2021/05/05 02:19:52;;;;;;;6.32;4.13;;;;;;;12.12;56.90;98605.44;5045755;28;20485;-72
2021/05/05 02:22:18;;;;;;;6.38;3.55;;;;;;;12.10;56.85;98596.00;5046059;28;20048;-71
2021/05/05 02:24:45;;;;;;;6.50;3.97;;;;;;;12.08;57.09;98596.16;5047296;28;20064;-70
2021/05/05 02:27:11;;;;;;;6.30;3.97;;;;;;;12.07;57.10;98596.34;5048492;28;20053;-70
2021/05/05 02:29:38;;;;;;;6.40;4.25;;;;;;;12.07;57.04;98591.88;5049126;28;20052;-70
2021/05/05 02:32:09;;;;;;;6.90;4.72;;;;;;;12.06;57.00;98579.63;5048272;28;20097;-70
2021/05/05 02:34:36;;;;;;;4.88;3.95;;;;;;;12.01;57.22;98582.75;5050454;28;20049;-70
2021/05/05 02:37:04;;;;;;;6.55;4.22;;;;;;;11.98;57.20;98582.25;5047974;28;20309;-71
2021/05/05 02:39:30;;;;;;;6.22;4.28;;;;;;;11.93;57.26;98579.25;5048050;28;20484;-71
2021/05/05 02:41:57;;;;;;;5.95;3.67;;;;;;;11.91;57.12;98576.78;5049160;28;20055;-70
2021/05/05 02:44:23;;;;;;;4.53;3.38;;;;;;;11.93;57.19;98573.97;5048589;28;20048;-69
2021/05/05 02:46:50;;;;;;;8.40;4.03;;;;;;;11.96;57.09;98573.66;5048888;28;20708;-69
2021/05/05 02:49:17;;;;;;;7.35;4.32;;;;;;;12.03;56.92;98575.50;5048559;28;20041;-71
2021/05/05 02:51:44;;;;;;;6.72;3.88;;;;;;;12.10;56.72;98577.47;5048925;28;20045;-68
2021/05/05 02:54:10;;;;;;;6.45;4.07;;;;;;;12.14;56.73;98578.81;5048361;28;20048;-70
2021/05/05 02:56:37;;;;;;;7.55;3.78;;;;;;;12.16;56.56;98584.78;5049514;28;20049;-70
2021/05/05 02:59:04;;;;;;;7.03;4.10;;;;;;;12.15;56.55;98577.81;5048041;28;20041;-69
2021/05/05 03:01:30;;;;;;;5.75;3.53;;;;;;;12.12;56.73;98575.50;5049136;28;20075;-72
2021/05/05 03:03:56;;;;;;;4.15;3.33;;;;;;;12.07;56.57;98575.19;5048721;28;20057;-71
2021/05/05 03:06:24;;;;;;;5.53;4.10;;;;;;;12.01;56.86;98582.75;5047492;28;20056;-70
2021/05/05 03:08:50;;;;;;;5.05;3.90;;;;;;;11.98;56.92;98591.00;5049692;28;20048;-72
2021/05/05 03:11:17;;;;;;;9.15;4.30;;;;;;;12.03;56.92;98593.19;5048741;28;20052;-72
2021/05/05 03:13:45;;;;;;;6.60;3.92;;;;;;;12.11;56.39;98608.25;5049403;28;20393;-69
2021/05/05 03:16:12;;;;;;;5.65;3.53;;;;;;;12.23;56.32;98599.84;5049972;28;20067;-71
2021/05/05 03:18:39;;;;;;;5.95;3.78;;;;;;;12.30;56.04;98592.09;5056772;28;20104;-73
2021/05/05 03:21:05;;;;;;;7.30;3.65;;;;;;;12.32;56.14;98598.03;5062061;28;20097;-70
2021/05/05 03:23:33;;;;;;;5.45;3.35;;;;;;;12.32;56.04;98592.75;5062708;28;20072;-72
2021/05/05 03:25:59;;;;;;;4.95;3.33;;;;;;;12.29;55.82;98590.41;5063034;28;20092;-71
2021/05/05 03:28:26;;;;;;;5.75;3.05;;;;;;;12.24;56.09;98590.06;5063553;28;20403;-69
2021/05/05 03:30:53;;;;;;;7.35;4.40;;;;;;;12.19;56.08;98589.72;5063626;28;20126;-69
2021/05/05 03:33:20;;;;;;;6.30;3.40;;;;;;;12.17;56.16;98587.28;5061775;28;20040;-71
2021/05/05 03:35:47;;;;;;;5.80;3.65;;;;;;;12.18;56.05;98588.09;5064001;28;20029;-71
2021/05/05 03:38:14;;;;;;;6.13;3.30;;;;;;;12.19;56.01;98585.28;5063513;28;20049;-71
2021/05/05 03:40:43;;;;;;;4.28;2.88;;;;;;;12.20;56.00;98580.81;5058213;28;20050;-70
2021/05/05 03:43:11;;;;;;;5.35;3.58;;;;;;;12.21;55.93;98590.41;5059231;28;20041;-70
2021/05/05 03:45:37;;;;;;;6.40;3.92;;;;;;;12.24;55.79;98598.03;5058057;28;20045;-71
2021/05/05 03:48:05;;;;;;;6.55;4.13;;;;;;;12.26;55.96;98588.09;5056525;28;20243;-74
2021/05/05 03:50:35;;;;;;;7.43;3.83;;;;;;;12.30;55.76;98607.97;5059374;28;20121;-72
2021/05/05 03:53:01;;;;;;;5.38;3.78;;;;;;;12.31;55.64;98606.16;5059569;28;20136;-72
2021/05/05 03:55:28;;;;;;;6.43;3.65;;;;;;;12.32;55.66;98606.00;5058862;28;20045;-71
2021/05/05 03:57:56;;;;;;;7.63;3.97;;;;;;;12.34;55.63;98605.81;5058499;28;20037;-69
2021/05/05 04:00:22;;;;;;;4.47;3.47;;;;;;;12.33;55.51;98602.34;5051224;28;20049;-72
2021/05/05 04:02:49;;;;;;;4.50;3.08;;;;;;;12.37;55.40;98605.47;5050493;28;20096;-75
2021/05/05 04:05:15;;;;;;;7.15;3.92;;;;;;;12.39;55.53;98607.00;5048787;28;20467;-72
2021/05/05 04:07:42;;;;;;;6.25;3.90;;;;;;;12.45;55.20;98594.09;5048948;28;20049;-73
2021/05/05 04:10:09;;;;;;;5.43;3.45;;;;;;;12.49;55.26;98593.59;5047986;28;20049;-69
2021/05/05 04:12:37;;;;;;;4.85;2.90;;;;;;;12.55;55.00;98600.88;5047202;28;20053;-72
2021/05/05 04:15:05;;;;;;;3.75;3.13;;;;;;;12.62;54.94;98595.75;5048220;28;20060;-68
2021/05/05 04:17:31;;;;;;;5.60;3.28;;;;;;;12.70;54.84;98595.75;5045282;28;20057;-72
2021/05/05 04:19:58;;;;;;;4.47;2.63;;;;;;;12.78;54.60;98598.41;5047511;28;20523;-71
2021/05/05 04:22:25;;;;;;;4.85;3.75;;;;;;;13.28;53.97;98604.47;5047293;28;20492;-73
2021/05/05 04:24:52;;;;;;;11.55;4.85;;;;;;;14.55;51.24;98607.06;5047635;28;20055;-71
2021/05/05 04:27:19;;;;;;;7.55;5.22;;;;;;;15.80;48.64;98600.44;5045513;28;20045;-73
2021/05/05 04:29:46;;;;;;;4.15;2.88;;;;;;;16.78;46.34;98596.38;5047523;28;20049;-74
2021/05/05 04:32:14;;;;;;;4.93;3.60;;;;;;;17.63;45.14;98603.53;5047327;28;20049;-75
2021/05/05 04:34:41;;;;;;;7.00;3.40;;;;;;;18.46;43.53;98603.47;5046169;28;20055;-73
2021/05/05 04:37:08;;;;;;;7.07;3.13;;;;;;;19.28;41.68;98591.59;5046134;28;20059;-73
2021/05/05 04:39:34;;;;;;;4.97;3.05;;;;;;;20.05;40.01;98596.31;5048034;28;20055;-73
2021/05/05 04:42:01;;;;;;;7.13;3.53;;;;;;;20.80;38.93;98593.84;5046450;28;20050;-74
2021/05/05 04:44:27;;;;;;;38.67;33.25;;;;;;;21.27;38.04;98595.31;5045981;28;20500;-73
2021/05/05 04:46:54;;;;;;;6.55;4.68;;;;;;;21.49;37.16;98588.47;5045329;28;20041;-74
2021/05/05 04:49:21;;;;;;;4.53;2.85;;;;;;;21.00;37.64;98582.13;5043735;28;20049;-71
2021/05/05 04:51:48;;;;;;;5.07;2.72;;;;;;;20.29;38.78;98592.06;5046415;28;20045;-71
2021/05/05 04:54:14;;;;;;;5.80;2.33;;;;;;;19.67;39.59;98595.19;5049626;28;20048;-78
2021/05/05 04:56:41;;;;;;;5.90;3.10;;;;;;;19.16;40.42;98587.06;5052459;28;20126;-74
2021/05/05 04:59:07;;;;;;;4.68;3.08;;;;;;;18.72;40.96;98586.63;5051880;28;20056;-77
2021/05/05 05:01:34;;;;;;;3.38;2.65;;;;;;;18.38;41.56;98591.09;5047687;28;20049;-73
2021/05/05 05:04:00;;;;;;;7.68;3.05;;;;;;;18.11;41.87;98588.38;5047789;28;20051;-74
2021/05/05 05:06:28;;;;;;;7.15;3.10;;;;;;;17.76;42.30;98580.41;5049164;28;20106;-74
2021/05/05 05:08:54;;;;;;;5.13;2.55;;;;;;;17.56;42.63;98576.81;5048387;28;20102;-74
2021/05/05 05:11:21;;;;;;;4.35;2.78;;;;;;;17.37;42.65;98579.16;5047479;28;20049;-74
2021/05/05 05:13:47;;;;;;;4.35;2.80;;;;;;;17.13;43.07;98587.63;5048466;28;20099;-73
2021/05/05 05:16:14;;;;;;;3.10;2.42;;;;;;;16.98;43.26;98577.06;5047523;28;20057;-73
2021/05/05 05:18:42;;;;;;;5.65;2.85;;;;;;;16.79;43.58;98586.50;5045235;28;20059;-74
2021/05/05 05:21:09;;;;;;;6.80;2.75;;;;;;;16.65;43.47;98576.75;5047455;28;20057;-75
2021/05/05 05:23:38;;;;;;;4.20;2.80;;;;;;;16.52;43.42;98566.78;5046352;28;20044;-80
2021/05/05 05:26:05;;;;;;;5.90;2.92;;;;;;;16.93;42.58;98572.31;5045420;28;20621;-73
2021/05/05 05:28:31;;;;;;;4.18;2.45;;;;;;;17.83;41.10;98575.09;5045424;28;20045;-76
2021/05/05 05:30:57;;;;;;;3.35;2.53;;;;;;;18.43;39.91;98580.63;5045079;28;20453;-75
2021/05/05 05:33:25;;;;;;;4.40;2.53;;;;;;;18.35;40.23;98586.19;5045398;28;20051;-75
2021/05/05 05:35:51;;;;;;;5.78;2.70;;;;;;;18.99;38.84;98586.66;5044253;28;20072;-75
2021/05/05 05:38:18;;;;;;;5.53;2.45;;;;;;;19.71;37.88;98573.34;5047416;28;20081;-76
2021/05/05 05:40:46;;;;;;;4.68;1.95;;;;;;;19.64;37.60;98576.03;5047815;28;20052;-76
2021/05/05 05:43:13;;;;;;;4.72;1.90;;;;;;;19.12;38.27;98570.59;5044077;28;20056;-73
2021/05/05 05:45:40;;;;;;;5.00;2.50;;;;;;;18.51;39.16;98585.78;5047418;28;20194;-74
2021/05/05 05:48:09;;;;;;;7.78;2.70;;;;;;;18.15;40.11;98578.13;5044030;28;20049;-74
2021/05/05 05:50:35;;;;;;;5.35;2.45;;;;;;;17.96;39.92;98577.00;5045382;28;20107;-74
2021/05/05 05:53:02;;;;;;;4.63;3.03;;;;;;;17.83;40.36;98584.97;5045303;28;20084;-75
2021/05/05 05:55:30;;;;;;;4.47;3.08;;;;;;;17.51;40.32;98584.59;5045677;28;20132;-75
2021/05/05 05:58:18;;;;;;;3.70;2.28;;;;;;;17.17;40.92;98578.22;5045914;28;20119;-74
2021/05/05 06:00:45;;;;;;;4.55;2.28;;;;;;;16.92;41.26;98575.97;5050667;28;20053;-75
2021/05/05 06:03:12;;;;;;;4.05;2.63;;;;;;;16.78;41.61;98584.84;5047745;28;20053;-75
2021/05/05 06:08:36;;;;;;;3.85;2.22;;;;;;;16.95;40.64;98588.94;5022633;28;20694;-77
2021/05/05 06:11:03;;;;;;;2.92;2.08;;;;;;;17.26;39.40;98592.22;5030029;28;20056;-75
2021/05/05 06:13:34;;;;;;;2.60;1.85;;;;;;;17.54;38.64;98589.53;5047407;28;20456;-75
2021/05/05 06:16:00;;;;;;;3.92;2.10;;;;;;;17.73;38.57;98593.31;5043614;28;20711;-74
2021/05/05 06:18:27;;;;;;;6.85;2.28;;;;;;;17.66;37.92;98587.94;5025462;28;20072;-75
2021/05/05 06:20:54;;;;;;;4.03;1.85;;;;;;;17.41;37.70;98595.59;5046734;28;20056;-73
2021/05/05 06:23:21;;;;;;;5.57;2.28;;;;;;;17.50;37.46;98591.78;5045253;28;20076;-73
2021/05/05 06:25:48;;;;;;;5.68;2.30;;;;;;;17.49;37.96;98592.78;5047487;28;20098;-76
2021/05/05 06:28:14;;;;;;;5.40;1.75;;;;;;;17.65;37.67;98604.19;5046821;28;20078;-75
2021/05/05 06:30:43;;;;;;;4.07;1.75;;;;;;;17.53;37.22;98590.53;5052840;28;20037;-75
2021/05/05 06:33:09;;;;;;;2.45;1.65;;;;;;;17.47;37.04;98596.69;5055960;28;20291;-74
2021/05/05 06:35:36;;;;;;;4.40;2.30;;;;;;;17.44;36.49;98589.88;5049450;28;20109;-76
2021/05/05 06:38:04;;;;;;;2.60;1.60;;;;;;;17.80;36.37;98591.50;5046583;28;20052;-75
2021/05/05 06:40:31;;;;;;;2.42;1.48;;;;;;;18.11;35.57;98599.06;5047619;28;20594;-73
2021/05/05 06:42:58;;;;;;;2.03;1.30;;;;;;;17.92;35.54;98597.97;5046350;28;20041;-75
2021/05/05 06:45:24;;;;;;;2.40;1.38;;;;;;;17.60;36.18;98590.59;5043645;28;20406;-74
2021/05/05 06:47:51;;;;;;;5.78;1.83;;;;;;;17.57;36.06;98584.63;5043009;28;20752;-74
2021/05/05 06:50:19;;;;;;;3.50;1.65;;;;;;;17.61;35.92;98579.72;5042865;28;20148;-75
2021/05/05 06:52:46;;;;;;;3.15;1.60;;;;;;;17.73;36.02;98572.78;5041061;28;20516;-75
2021/05/05 06:55:14;;;;;;;5.13;1.42;;;;;;;17.89;36.25;98576.16;5042167;28;20049;-75
2021/05/05 06:57:40;;;;;;;4.32;2.53;;;;;;;17.83;36.09;98566.25;5042798;28;20083;-75
2021/05/05 07:00:09;;;;;;;4.35;1.83;;;;;;;17.90;36.33;98572.50;5044345;28;20049;-75
2021/05/05 07:02:35;;;;;;;3.72;1.58;;;;;;;17.91;36.18;98571.44;5044246;28;20059;-76
2021/05/05 07:05:03;;;;;;;3.25;1.65;;;;;;;18.07;36.26;98572.94;5045961;28;20053;-75
2021/05/05 07:07:29;;;;;;;6.40;2.15;;;;;;;18.33;35.70;98572.19;5046468;28;20067;-75
2021/05/05 07:09:56;;;;;;;3.15;2.30;;;;;;;18.33;35.59;98583.72;5046125;28;20049;-75
2021/05/05 07:12:23;;;;;;;5.13;1.85;;;;;;;18.11;35.89;98585.72;5057240;28;20112;-74
2021/05/05 07:14:50;;;;;;;2.85;1.50;;;;;;;18.13;35.99;98589.00;5045352;28;20059;-75
2021/05/05 07:17:18;;;;;;;4.00;1.92;;;;;;;18.23;35.78;98590.47;5045228;28;20057;-75
2021/05/05 07:19:46;;;;;;;4.05;1.35;;;;;;;18.20;35.73;98586.31;5044996;28;20492;-75
2021/05/05 07:22:13;;;;;;;4.65;1.90;;;;;;;18.07;35.08;98595.13;5043642;28;20587;-76
2021/05/05 07:24:39;;;;;;;6.10;1.80;;;;;;;17.89;35.02;98586.84;5045225;28;20053;-75
2021/05/05 07:27:06;;;;;;;4.30;1.33;;;;;;;17.80;34.79;98590.69;5044695;28;20124;-73
2021/05/05 07:29:33;;;;;;;6.88;2.72;;;;;;;17.66;35.11;98581.78;5045586;28;20172;-74
2021/05/05 07:31:59;;;;;;;5.50;2.33;;;;;;;17.70;35.06;98580.34;5043575;28;20059;-74
2021/05/05 07:34:26;;;;;;;3.47;1.45;;;;;;;17.89;35.04;98581.50;5045689;28;20045;-76
2021/05/05 07:36:57;;;;;;;5.32;1.90;;;;;;;18.10;34.59;98578.72;5026211;28;20254;-76
2021/05/05 07:39:47;;;;;;;4.70;2.10;;;;;;;18.26;34.59;98574.84;5044555;28;20075;-74
2021/05/05 07:42:49;;;;;;;5.70;2.15;;;;;;;18.34;34.64;98579.19;5044858;28;20045;-75
2021/05/05 07:45:31;;;;;;;5.32;2.15;;;;;;;18.54;34.37;98566.66;5044568;28;20057;-75
2021/05/05 07:48:04;;;;;;;5.47;2.13;;;;;;;18.93;33.73;98576.81;5042277;28;20048;-75
2021/05/05 07:50:31;;;;;;;3.25;1.80;;;;;;;19.24;33.48;98568.94;5043765;28;20053;-75
2021/05/05 07:52:58;;;;;;;3.13;1.85;;;;;;;19.23;33.56;98567.31;5046197;28;20044;-76
2021/05/05 07:55:25;;;;;;;3.60;1.67;;;;;;;19.25;33.64;98556.41;5049629;28;20052;-73
2021/05/05 07:57:52;;;;;;;3.55;1.42;;;;;;;19.59;33.26;98559.78;5049620;28;20106;-75
2021/05/05 08:00:30;;;;;;;5.10;1.67;;;;;;;19.77;33.30;98559.13;5050696;28;20044;-76
2021/05/05 08:02:56;;;;;;;2.35;2.05;;;;;;;19.78;33.57;98560.78;5051268;28;20743;-75
2021/05/05 08:05:22;;;;;;;4.38;2.28;;;;;;;19.66;33.78;98555.22;5048177;28;20258;-73
2021/05/05 08:07:53;;;;;;;3.70;1.40;;;;;;;19.35;34.04;98563.97;5047501;28;20040;-74
2021/05/05 08:10:20;;;;;;;3.58;1.90;;;;;;;19.35;34.34;98555.94;5044047;28;20654;-75
2021/05/05 08:12:48;;;;;;;2.35;1.40;;;;;;;19.33;34.25;98549.97;5045569;28;20044;-75
2021/05/05 08:15:15;;;;;;;6.25;2.13;;;;;;;19.36;34.78;98546.91;5045244;28;20045;-73
2021/05/05 08:17:43;;;;;;;11.68;3.30;;;;;;;19.51;34.58;98557.34;5043945;28;20068;-75
2021/05/05 08:20:13;;;;;;;2.38;1.85;;;;;;;19.61;34.74;98561.22;5043248;28;20053;-75
2021/05/05 08:22:40;;;;;;;3.97;1.90;;;;;;;19.41;35.14;98565.81;5044575;28;20055;-75
2021/05/05 08:25:07;;;;;;;2.50;2.17;;;;;;;19.41;35.36;98566.66;5043140;28;20072;-74
2021/05/05 08:27:34;;;;;;;6.20;2.35;;;;;;;19.46;35.56;98561.50;5040528;28;20051;-75
2021/05/05 08:30:01;;;;;;;4.90;1.67;;;;;;;19.20;35.86;98562.34;5040977;28;20081;-75
2021/05/05 08:32:30;;;;;;;2.08;1.70;;;;;;;18.88;36.81;98574.75;5041944;28;20057;-75
2021/05/05 08:34:58;;;;;;;4.00;2.15;;;;;;;18.50;38.04;98565.41;5044096;28;20049;-73
2021/05/05 08:37:26;;;;;;;3.83;1.90;;;;;;;18.17;39.02;98568.03;5023789;28;20041;-75
2021/05/05 08:39:55;;;;;;;2.83;2.03;;;;;;;17.90;39.76;98570.63;5044130;28;20044;-76
2021/05/05 08:42:22;;;;;;;7.47;2.25;;;;;;;17.90;40.44;98565.28;5044939;28;20409;-75
2021/05/05 08:44:49;;;;;;;4.40;2.35;;;;;;;18.02;40.43;98568.19;5046347;28;20052;-76
2021/05/05 08:47:18;;;;;;;4.38;3.17;;;;;;;18.15;40.51;98564.75;5044853;28;20053;-75
2021/05/05 08:49:48;;;;;;;4.50;2.67;;;;;;;18.51;40.13;98566.25;5046660;28;20136;-75
2021/05/05 08:52:15;;;;;;;3.88;2.28;;;;;;;19.00;39.22;98562.38;5042659;28;20116;-75
2021/05/05 08:54:42;;;;;;;2.97;1.90;;;;;;;19.32;38.75;98551.00;5041580;28;20063;-75
2021/05/05 08:57:13;;;;;;;3.28;2.85;;;;;;;19.78;38.25;98552.75;5041337;28;20049;-75
2021/05/05 08:59:40;;;;;;;6.63;2.83;;;;;;;20.47;37.25;98547.63;5042992;28;20122;-73
2021/05/05 09:02:06;;;;;;;5.28;3.03;;;;;;;20.94;36.32;98540.03;5042254;28;20120;-74
2021/05/05 09:04:35;;;;;;;4.25;2.38;;;;;;;21.12;35.75;98540.09;5042919;28;20554;-74
2021/05/05 09:07:02;;;;;;;5.63;2.47;;;;;;;21.02;35.82;98533.59;5042476;28;20052;-75
2021/05/05 09:09:35;;;;;;;5.00;2.38;;;;;;;20.85;35.78;98536.00;5042899;28;20048;-75
2021/05/05 09:12:23;;;;;;;5.10;2.13;;;;;;;20.54;36.27;98538.47;5042333;28;20051;-74
2021/05/05 09:15:02;;;;;;;4.88;2.38;;;;;;;20.20;36.96;98553.16;5043286;28;20104;-76
2021/05/05 09:17:31;;;;;;;4.30;1.98;;;;;;;20.08;37.28;98552.19;5043076;28;20216;-74
2021/05/05 09:20:21;;;;;;;5.63;2.35;;;;;;;20.12;37.24;98540.81;5042501;28;20060;-75
2021/05/05 09:22:49;;;;;;;4.55;2.55;;;;;;;20.23;37.49;98542.00;5043954;28;20049;-75
2021/05/05 09:25:18;;;;;;;8.48;3.65;;;;;;;19.99;37.86;98541.72;5026548;28;20055;-76
2021/05/05 09:28:14;;;;;;;3.92;2.30;;;;;;;19.51;38.97;98536.75;5048293;28;20060;-76
2021/05/05 09:30:44;;;;;;;3.70;2.05;;;;;;;19.28;39.40;98539.88;5060559;28;20089;-76
2021/05/05 09:33:21;;;;;;;3.95;1.90;;;;;;;18.83;40.19;98540.56;5056223;28;20390;-76
2021/05/05 09:35:52;;;;;;;1.92;1.70;;;;;;;18.61;40.44;98550.63;5055744;28;20060;-75
2021/05/05 09:38:19;;;;;;;2.90;1.58;;;;;;;18.50;41.17;98546.72;5057740;28;20049;-76
2021/05/05 09:40:56;;;;;;;3.33;1.83;;;;;;;18.46;41.07;98550.00;5061109;28;20057;-74
2021/05/05 09:43:23;;;;;;;2.83;1.70;;;;;;;18.42;41.21;98535.38;5064681;28;20093;-76
2021/05/05 09:45:51;;;;;;;2.53;1.75;;;;;;;18.39;41.08;98536.63;5061674;28;20049;-73
2021/05/05 09:48:22;;;;;;;2.47;1.77;;;;;;;18.36;41.52;98534.34;5031029;28;20045;-77
2021/05/05 09:50:58;;;;;;;3.15;2.45;;;;;;;18.31;41.64;98550.16;5051811;28;20041;-76
2021/05/05 09:53:26;;;;;;;3.30;2.20;;;;;;;18.12;42.07;98533.91;5053135;28;20435;-76
2021/05/05 09:56:13;;;;;;;5.97;2.03;;;;;;;17.86;43.06;98541.84;5055089;28;20108;-75
2021/05/05 09:58:43;;;;;;;3.22;1.83;;;;;;;17.47;44.53;98546.78;5052805;28;20059;-75
2021/05/05 10:01:20;;;;;;;4.88;2.38;;;;;;;17.22;45.20;98546.44;5056721;28;20053;-75
2021/05/05 10:03:52;;;;;;;4.82;2.20;;;;;;;17.07;46.10;98546.56;5055483;28;20103;-75
2021/05/05 10:06:27;;;;;;;4.03;2.30;;;;;;;17.06;46.57;98549.41;5055885;28;20045;-74
2021/05/05 10:08:57;;;;;;;4.57;2.30;;;;;;;16.87;47.31;98545.56;5052304;28;20049;-76
2021/05/05 10:11:28;;;;;;;6.28;2.92;;;;;;;16.71;47.98;98557.31;5052419;28;20064;-76
2021/05/05 10:13:58;;;;;;;9.77;4.25;;;;;;;16.52;48.68;98551.63;5052672;28;20128;-75
2021/05/05 10:16:28;;;;;;;6.72;3.70;;;;;;;16.37;49.14;98550.88;5051465;28;20057;-76
2021/05/05 10:18:55;;;;;;;4.18;2.53;;;;;;;16.18;50.31;98555.81;5027027;28;20118;-76
2021/05/05 10:21:25;;;;;;;6.32;2.47;;;;;;;16.01;51.14;98559.72;5047261;28;20136;-75
2021/05/05 10:23:57;;;;;;;6.93;3.13;;;;;;;15.98;51.60;98568.09;5048017;28;20049;-75
2021/05/05 10:26:26;;;;;;;3.58;2.85;;;;;;;15.91;51.78;98569.84;5044479;28;20090;-75
2021/05/05 10:28:53;;;;;;;5.38;2.75;;;;;;;15.73;52.11;98568.38;5045532;28;20044;-76
2021/05/05 10:31:23;;;;;;;5.55;2.97;;;;;;;15.54;52.76;98571.59;5043833;28;20120;-75
2021/05/05 10:33:56;;;;;;;6.28;2.90;;;;;;;15.48;53.07;98574.00;5043419;28;20630;-75
2021/05/05 10:36:35;;;;;;;5.07;3.45;;;;;;;15.53;52.99;98585.94;5044235;28;20053;-75
2021/05/05 10:39:07;;;;;;;5.70;2.88;;;;;;;15.49;53.33;98586.28;5045331;28;20049;-72
2021/05/05 10:41:35;;;;;;;6.10;3.20;;;;;;;15.40;53.91;98587.38;5045104;28;20056;-74
2021/05/05 10:44:03;;;;;;;4.68;2.83;;;;;;;15.22;54.45;98595.72;5042976;28;20713;-75
2021/05/05 10:46:33;;;;;;;5.45;2.97;;;;;;;15.11;54.47;98598.84;5041756;28;20514;-76
2021/05/05 10:49:09;;;;;;;5.05;3.17;;;;;;;14.95;55.16;98589.16;5042282;28;20076;-76
2021/05/05 10:52:00;;;;;;;4.32;2.45;;;;;;;14.86;55.32;98606.19;5044247;28;20077;-73
2021/05/05 10:54:57;;;;;;;4.85;2.60;;;;;;;14.82;55.26;98610.19;5041160;28;20049;-76
2021/05/05 10:57:26;;;;;;;7.90;2.50;;;;;;;14.70;55.69;98610.63;5020435;28;20049;-75
2021/05/05 11:00:12;;;;;;;5.88;3.78;;;;;;;14.62;55.95;98610.72;5020414;28;20760;-76
2021/05/05 11:02:54;;;;;;;6.20;3.08;;;;;;;14.63;55.97;98611.53;5020582;28;20736;-74
2021/05/05 11:05:35;;;;;;;4.40;3.00;;;;;;;14.65;56.09;98610.34;5007136;28;20062;-73
2021/05/05 11:08:05;;;;;;;8.07;3.97;;;;;;;14.62;56.56;98616.03;5021657;28;20148;-75
2021/05/05 11:10:54;;;;;;;7.88;4.78;;;;;;;14.75;56.65;98617.22;5021529;28;20054;-76
2021/05/05 11:13:41;;;;;;;6.72;3.90;;;;;;;14.79;56.83;98626.53;5020400;28;20329;-75
2021/05/05 11:16:10;;;;;;;5.43;3.55;;;;;;;14.83;56.98;98633.94;5018637;28;20056;-74
2021/05/05 11:18:42;;;;;;;5.72;3.22;;;;;;;14.78;57.55;98630.19;5018788;28;20115;-76
2021/05/05 11:21:32;;;;;;;7.57;4.15;;;;;;;14.92;57.68;98637.38;5025362;28;20131;-75
2021/05/05 11:24:02;;;;;;;7.13;3.83;;;;;;;15.14;57.03;98625.03;5023926;28;20136;-73
2021/05/05 11:26:32;;;;;;;5.93;4.30;;;;;;;15.06;57.42;98633.09;5023069;28;20132;-74
2021/05/05 11:29:01;;;;;;;8.63;4.70;;;;;;;14.98;57.71;98631.34;5022255;28;20075;-74
2021/05/05 11:32:03;;;;;;;10.93;3.17;;;;;;;14.89;57.58;98635.91;5029280;28;20530;-74
2021/05/05 11:34:36;;;;;;;10.50;4.22;;;;;;;14.58;57.92;98637.81;5043914;28;20147;-75
2021/05/05 11:37:06;;;;;;;7.40;3.20;;;;;;;14.38;58.09;98648.03;5042617;28;20088;-75
2021/05/05 11:39:55;;;;;;;8.98;2.85;;;;;;;14.18;58.16;98643.16;5048040;28;20053;-74
2021/05/05 11:42:23;;;;;;;11.98;4.90;;;;;;;13.93;58.55;98637.94;5063016;28;20051;-73
2021/05/05 11:44:52;;;;;;;9.50;5.10;;;;;;;13.72;59.16;98643.00;5103671;22;20687;-73
2021/05/05 11:47:23;;;;;;;7.93;3.75;;;;;;;13.55;59.51;98635.09;5117896;22;20060;-73